createdAt,value
2018-04-15T00:00:24.256Z,84.80
2018-04-15T00:02:51.731Z,79.83
2018-04-15T00:05:19.974Z,87.37
2018-04-15T00:07:47.451Z,86.37
2018-04-15T00:10:15.055Z,81.80
2018-04-15T00:12:42.530Z,80.67
2018-04-15T00:15:10.026Z,80.67
2018-04-15T00:17:37.497Z,84.57
2018-04-15T00:20:05.749Z,86.67
2018-04-15T00:22:33.226Z,78.40
2018-04-15T00:25:01.481Z,85.90
2018-04-15T00:27:28.976Z,78.13
2018-04-15T00:29:57.216Z,78.23
2018-04-15T00:32:24.775Z,83.47
2018-04-15T00:34:52.302Z,79.53
2018-04-15T00:37:19.835Z,82.27
2018-04-15T00:39:48.090Z,83.23
2018-04-15T00:42:15.612Z,82.77
2018-04-15T00:44:43.237Z,81.63
2018-04-15T00:47:10.757Z,83.60
2018-04-15T00:49:38.239Z,85.27
2018-04-15T00:52:06.484Z,89.13
2018-04-15T00:54:33.976Z,82.20
2018-04-15T00:57:02.265Z,84.23
2018-04-15T00:59:29.812Z,82.90
2018-04-15T01:01:58.059Z,79.80
2018-04-15T01:04:25.597Z,82.90
2018-04-15T01:06:53.106Z,84.77
2018-04-15T01:09:21.383Z,78.40
2018-04-15T01:11:49.708Z,85.57
2018-04-15T01:14:17.205Z,80.50
2018-04-15T01:16:45.455Z,81.33
2018-04-15T01:19:12.930Z,78.73
2018-04-15T01:21:40.442Z,92.00
2018-04-15T01:24:07.939Z,83.47
2018-04-15T01:26:35.421Z,90.63
2018-04-15T01:29:03.667Z,88.63
2018-04-15T01:31:31.165Z,84.23
2018-04-15T01:33:58.674Z,89.17
2018-04-15T01:36:26.275Z,82.93
2018-04-15T01:38:54.522Z,88.90
2018-04-15T01:41:22.018Z,93.67
2018-04-15T01:43:50.339Z,87.30
2018-04-15T01:46:17.840Z,84.70
2018-04-15T01:48:46.136Z,89.07
2018-04-15T01:51:14.366Z,91.00
2018-04-15T01:53:41.887Z,89.80
2018-04-15T01:56:09.390Z,85.33
2018-04-15T01:58:36.923Z,92.67
2018-04-15T02:01:04.407Z,89.60
2018-04-15T02:03:31.944Z,93.33
2018-04-15T02:05:59.404Z,89.13
2018-04-15T02:08:27.031Z,92.53
2018-04-15T02:10:54.514Z,94.67
2018-04-15T02:13:21.983Z,96.70
2018-04-15T02:15:49.538Z,96.37
2018-04-15T02:18:16.995Z,94.43
2018-04-15T02:20:44.493Z,93.83
2018-04-15T02:23:11.952Z,98.33
2018-04-15T02:25:39.445Z,90.07
2018-04-15T02:28:07.772Z,94.73
2018-04-15T02:30:36.031Z,94.40
2018-04-15T02:33:03.491Z,99.27
2018-04-15T02:35:30.994Z,97.60
2018-04-15T02:37:59.239Z,95.43
2018-04-15T02:40:26.767Z,92.57
2018-04-15T02:42:54.279Z,96.47
2018-04-15T02:45:21.760Z,98.07
2018-04-15T02:47:50.033Z,92.33
2018-04-15T02:50:17.525Z,101.07
2018-04-15T02:52:45.041Z,96.83
2018-04-15T02:55:13.282Z,91.60
2018-04-15T02:57:41.032Z,97.93
2018-04-15T03:00:08.506Z,95.70
2018-04-15T03:02:36.516Z,96.90
2018-04-15T03:05:04.852Z,102.80
2018-04-15T03:07:32.341Z,102.20
2018-04-15T03:09:59.825Z,101.30
2018-04-15T03:12:27.303Z,103.23
2018-04-15T03:14:54.916Z,108.57
2018-04-15T03:17:22.419Z,98.73
2018-04-15T03:19:49.903Z,106.20
2018-04-15T03:22:17.408Z,103.03
2018-04-15T03:24:44.922Z,101.03
2018-04-15T03:27:12.417Z,110.23
2018-04-15T03:29:40.644Z,99.07
2018-04-15T03:32:08.887Z,103.63
2018-04-15T03:34:36.388Z,99.13
2018-04-15T03:37:03.919Z,104.73
2018-04-15T03:39:31.401Z,105.00
2018-04-15T03:41:58.893Z,107.67
2018-04-15T03:44:26.371Z,103.33
2018-04-15T03:46:54.634Z,100.60
2018-04-15T03:49:22.894Z,107.07
2018-04-15T03:51:50.605Z,100.67
2018-04-15T03:54:18.230Z,106.50
2018-04-15T03:56:45.807Z,104.20
2018-04-15T03:59:14.060Z,100.40
2018-04-15T04:01:41.549Z,110.37
2018-04-15T04:04:09.034Z,108.33
2018-04-15T04:06:36.550Z,110.37
2018-04-15T04:09:04.799Z,107.87
2018-04-15T04:11:32.268Z,100.67
2018-04-15T04:13:59.780Z,108.40
2018-04-15T04:16:27.253Z,110.37
2018-04-15T04:19:06.686Z,107.03
2018-04-15T04:21:46.067Z,119.20
2018-04-15T04:24:26.122Z,121.00
2018-04-15T04:26:54.820Z,119.47
2018-04-15T04:29:23.068Z,117.33
2018-04-15T04:31:50.536Z,120.10
2018-04-15T04:34:18.063Z,125.70
2018-04-15T04:36:45.525Z,147.87
2018-04-15T04:39:13.030Z,147.40
2018-04-15T04:41:41.293Z,155.13
2018-04-15T04:44:09.580Z,168.77
2018-04-15T04:46:37.916Z,165.03
2018-04-15T04:49:05.598Z,161.43
2018-04-15T04:51:33.301Z,170.00
2018-04-15T04:54:00.861Z,157.53
2018-04-15T04:56:28.492Z,159.30
2018-04-15T04:58:56.912Z,163.73
2018-04-15T05:01:24.426Z,157.27
2018-04-15T05:03:51.934Z,153.00
2018-04-15T05:06:19.437Z,183.43
2018-04-15T05:08:46.926Z,162.10
2018-04-15T05:11:14.455Z,166.67
2018-04-15T05:13:41.937Z,155.87
2018-04-15T05:16:10.256Z,173.23
2018-04-15T05:18:37.759Z,165.60
2018-04-15T05:21:05.274Z,179.03
2018-04-15T05:23:32.823Z,165.77
2018-04-15T05:26:01.083Z,170.97
2018-04-15T05:28:28.576Z,179.73
2018-04-15T05:30:56.059Z,189.53
2018-04-15T05:33:23.535Z,182.90
2018-04-15T05:35:51.811Z,173.03
2018-04-15T05:38:19.303Z,186.50
2018-04-15T05:40:46.844Z,188.33
2018-04-15T05:43:15.248Z,198.23
2018-04-15T05:45:42.899Z,192.97
2018-04-15T05:48:10.532Z,187.53
2018-04-15T05:50:38.958Z,204.90
2018-04-15T05:53:06.578Z,199.60
2018-04-15T05:55:34.891Z,206.80
2018-04-15T05:58:02.400Z,200.33
2018-04-15T06:00:29.888Z,191.50
2018-04-15T06:02:57.419Z,196.97
2018-04-15T06:05:24.894Z,183.50
2018-04-15T06:07:52.442Z,192.77
2018-04-15T06:10:19.953Z,191.40
2018-04-15T06:12:47.503Z,182.63
2018-04-15T06:15:15.014Z,187.70
2018-04-15T06:17:42.631Z,180.13
2018-04-15T06:20:10.120Z,193.43
2018-04-15T06:22:37.615Z,198.90
2018-04-15T06:25:05.888Z,182.50
2018-04-15T06:27:34.146Z,154.80
2018-04-15T06:30:01.646Z,170.97
2018-04-15T06:32:29.966Z,184.30
2018-04-15T06:34:57.565Z,169.23
2018-04-15T06:37:25.919Z,156.37
2018-04-15T06:39:53.411Z,159.60
2018-04-15T06:42:20.904Z,162.73
2018-04-15T06:44:48.499Z,156.23
2018-04-15T06:47:16.056Z,157.07
2018-04-15T06:49:43.555Z,150.07
2018-04-15T06:52:11.023Z,161.87
2018-04-15T06:54:39.365Z,148.97
2018-04-15T06:57:07.666Z,142.70
2018-04-15T06:59:35.202Z,142.30
2018-04-15T07:02:02.676Z,150.10
2018-04-15T07:04:30.961Z,161.70
2018-04-15T07:06:58.457Z,151.27
2018-04-15T07:09:25.967Z,148.43
2018-04-15T07:11:53.503Z,142.23
2018-04-15T07:14:20.987Z,140.47
2018-04-15T07:16:49.241Z,141.20
2018-04-15T07:19:16.718Z,147.00
2018-04-15T07:21:45.075Z,128.27
2018-04-15T07:24:12.518Z,126.77
2018-04-15T07:26:40.141Z,152.93
2018-04-15T07:29:07.783Z,138.63
2018-04-15T07:31:35.401Z,125.57
2018-04-15T07:34:03.133Z,115.40
2018-04-15T07:36:30.883Z,103.90
2018-04-15T07:38:59.205Z,97.60
2018-04-15T07:41:27.822Z,88.17
2018-04-15T07:43:56.120Z,84.10
2018-04-15T07:46:23.594Z,75.00
2018-04-15T07:48:51.919Z,73.30
2018-04-15T07:51:19.666Z,75.77
2018-04-15T07:53:47.180Z,77.67
2018-04-15T07:56:14.705Z,67.50
2018-04-15T07:58:42.170Z,58.13
2018-04-15T08:01:09.768Z,64.00
2018-04-15T08:03:37.262Z,65.93
2018-04-15T08:06:04.744Z,63.17
2018-04-15T08:08:33.088Z,62.57
2018-04-15T08:11:01.370Z,61.97
2018-04-15T08:13:28.913Z,60.03
2018-04-15T08:15:56.392Z,50.87
2018-04-15T08:18:23.907Z,31.50
2018-04-15T08:20:52.102Z,34.87
2018-04-15T08:23:20.301Z,33.03
2018-04-15T08:25:48.440Z,37.27
2018-04-15T08:28:16.090Z,31.60
2018-04-15T08:30:43.605Z,32.77
2018-04-15T08:33:11.257Z,32.10
2018-04-15T08:35:38.926Z,33.30
2018-04-15T08:38:06.799Z,31.83
2018-04-15T08:40:34.288Z,30.30
2018-04-15T08:43:02.515Z,28.00
2018-04-15T08:45:30.126Z,27.27
2018-04-15T08:47:57.759Z,25.57
2018-04-15T08:50:25.304Z,24.87
2018-04-15T08:52:53.724Z,24.60
2018-04-15T08:55:22.590Z,24.10
2018-04-15T08:57:50.127Z,27.07
2018-04-15T09:00:17.630Z,21.30
2018-04-15T09:02:46.298Z,22.57
2018-04-15T09:05:14.856Z,20.80
2018-04-15T09:07:42.339Z,23.43
2018-04-15T09:10:09.894Z,25.43
2018-04-15T09:12:38.142Z,27.70
2018-04-15T09:15:05.741Z,24.20
2018-04-15T09:17:33.228Z,27.67
2018-04-15T09:20:00.778Z,25.90
2018-04-15T09:22:28.294Z,22.77
2018-04-15T09:24:55.923Z,25.33
2018-04-15T09:27:23.379Z,23.70
2018-04-15T09:29:51.106Z,27.13
2018-04-15T09:32:19.445Z,25.60
2018-04-15T09:34:47.044Z,23.07
2018-04-15T09:37:14.593Z,25.63
2018-04-15T09:39:42.262Z,24.00
2018-04-15T09:42:09.774Z,23.63
2018-04-15T09:44:37.272Z,22.97
2018-04-15T09:47:04.900Z,21.30
2018-04-15T09:49:32.602Z,21.00
2018-04-15T09:52:00.206Z,18.70
2018-04-15T09:54:27.734Z,19.53
2018-04-15T09:56:55.249Z,17.20
2018-04-15T09:59:22.937Z,18.80
2018-04-15T10:01:50.496Z,18.43
2018-04-15T10:04:18.060Z,17.10
2018-04-15T10:06:45.616Z,17.17
2018-04-15T10:09:13.158Z,16.67
2018-04-15T10:11:40.718Z,16.73
2018-04-15T10:14:08.311Z,14.87
2018-04-15T10:16:36.065Z,15.47
2018-04-15T10:19:03.609Z,13.20
2018-04-15T10:21:31.106Z,14.37
2018-04-15T10:23:58.754Z,13.37
2018-04-15T10:26:26.224Z,11.77
2018-04-15T10:28:54.546Z,11.53
2018-04-15T10:31:22.060Z,10.33
2018-04-15T10:33:50.349Z,10.90
2018-04-15T10:36:17.995Z,12.63
2018-04-15T10:38:46.487Z,12.47
2018-04-15T10:41:14.822Z,13.37
2018-04-15T10:43:42.557Z,11.13
2018-04-15T10:46:10.070Z,10.40
2018-04-15T10:48:37.632Z,10.37
2018-04-15T10:51:05.915Z,11.83
2018-04-15T10:53:34.164Z,10.37
2018-04-15T10:56:01.690Z,11.83
2018-04-15T10:58:29.255Z,10.33
2018-04-15T11:00:56.752Z,11.43
2018-04-15T11:03:24.233Z,11.50
2018-04-15T11:05:52.509Z,11.80
2018-04-15T11:08:20.763Z,9.83
2018-04-15T11:10:48.246Z,10.27
2018-04-15T11:13:16.541Z,10.03
2018-04-15T11:15:44.119Z,9.30
2018-04-15T11:18:11.648Z,10.10
2018-04-15T11:20:39.261Z,8.47
2018-04-15T11:23:06.759Z,8.77
2018-04-15T11:25:34.995Z,9.17
2018-04-15T11:28:02.480Z,8.03
2018-04-15T11:30:30.009Z,5.87
2018-04-15T11:32:58.229Z,6.23
2018-04-15T11:35:26.486Z,4.60
2018-04-15T11:37:53.973Z,5.23
2018-04-15T11:40:21.453Z,4.33
2018-04-15T11:42:48.961Z,6.43
2018-04-15T11:45:16.751Z,5.07
2018-04-15T11:47:45.009Z,4.13
2018-04-15T11:50:13.359Z,4.40
2018-04-15T11:52:40.938Z,5.90
2018-04-15T11:55:08.487Z,4.73
2018-04-15T11:57:36.108Z,4.83
2018-04-15T12:00:03.698Z,4.30
2018-04-15T12:02:31.279Z,4.37
2018-04-15T12:04:59.035Z,5.50
2018-04-15T12:07:26.848Z,4.30
2018-04-15T12:09:54.563Z,4.20
2018-04-15T12:12:22.216Z,3.83
2018-04-15T12:14:49.817Z,4.27
2018-04-15T12:17:17.375Z,5.10
2018-04-15T12:19:45.099Z,5.33
2018-04-15T12:22:12.643Z,4.23
2018-04-15T12:24:40.270Z,4.23
2018-04-15T12:27:08.535Z,5.47
2018-04-15T12:29:36.097Z,4.90
2018-04-15T12:32:04.412Z,3.90
2018-04-15T12:34:31.953Z,5.20
2018-04-15T12:37:00.130Z,4.30
2018-04-15T12:39:27.632Z,4.20
2018-04-15T12:41:55.097Z,4.67
2018-04-15T12:44:23.196Z,4.73
2018-04-15T12:46:50.799Z,4.17
2018-04-15T12:49:18.270Z,4.77
2018-04-15T12:51:46.266Z,4.83
2018-04-15T12:54:13.749Z,4.80
2018-04-15T12:56:41.997Z,4.63
2018-04-15T12:59:09.556Z,3.80
2018-04-15T13:01:37.070Z,3.70
2018-04-15T13:04:04.706Z,3.40
2018-04-15T13:06:32.996Z,4.00
2018-04-15T13:09:00.480Z,3.60
2018-04-15T13:11:28.045Z,3.77
2018-04-15T13:13:55.571Z,4.67
2018-04-15T13:16:23.944Z,3.43
2018-04-15T13:18:51.590Z,3.60
2018-04-15T13:21:20.087Z,3.37
2018-04-15T13:23:48.393Z,3.90
2018-04-15T13:26:15.880Z,3.73
2018-04-15T13:28:43.458Z,3.57
2018-04-15T13:31:10.954Z,4.20
2018-04-15T13:33:38.560Z,4.03
2018-04-15T13:36:06.056Z,3.40
2018-04-15T13:38:34.382Z,3.73
2018-04-15T13:41:01.884Z,4.70
2018-04-15T13:43:30.124Z,4.13
2018-04-15T13:45:57.643Z,5.13
2018-04-15T13:48:26.066Z,5.60
2018-04-15T13:50:53.623Z,4.93
2018-04-15T13:53:21.141Z,4.20
2018-04-15T13:55:48.627Z,5.57
2018-04-15T13:58:16.321Z,4.73
2018-04-15T14:00:43.989Z,4.37
2018-04-15T14:03:11.941Z,3.80
2018-04-15T14:05:39.558Z,3.80
2018-04-15T14:08:07.602Z,3.30
2018-04-15T14:10:35.222Z,3.33
2018-04-15T14:13:02.710Z,3.63
2018-04-15T14:15:30.984Z,2.90
2018-04-15T14:17:58.447Z,4.37
2018-04-15T14:20:25.992Z,7.03
2018-04-15T14:22:53.505Z,3.80
2018-04-15T14:25:21.139Z,5.00
2018-04-15T14:27:48.603Z,3.70
2018-04-15T14:30:16.861Z,3.63
2018-04-15T14:32:44.372Z,4.10
2018-04-15T14:35:12.084Z,4.47
2018-04-15T14:37:40.367Z,3.23
2018-04-15T14:40:09.936Z,3.00
2018-04-15T14:42:37.480Z,9.03
2018-04-15T14:45:04.981Z,4.40
2018-04-15T14:47:32.494Z,12.63
2018-04-15T14:50:00.013Z,3.67
2018-04-15T14:52:28.260Z,4.77
2018-04-15T14:54:55.765Z,3.53
2018-04-15T14:57:23.281Z,3.47
2018-04-15T14:59:50.793Z,3.30
2018-04-15T15:02:18.379Z,2.80
2018-04-15T15:04:45.901Z,2.57
2018-04-15T15:07:14.156Z,4.13
2018-04-15T15:09:41.618Z,2.30
2018-04-15T15:12:09.103Z,3.67
2018-04-15T15:14:36.657Z,2.47
2018-04-15T15:17:04.167Z,3.50
2018-04-15T15:19:31.834Z,3.60
2018-04-15T15:21:59.380Z,2.30
2018-04-15T15:24:27.745Z,2.97
2018-04-15T15:26:55.226Z,2.33
2018-04-15T15:29:22.938Z,2.53
2018-04-15T15:31:50.540Z,3.13
2018-04-15T15:34:18.005Z,7.10
2018-04-15T15:36:45.983Z,4.47
2018-04-15T15:39:14.232Z,3.13
2018-04-15T15:41:41.783Z,2.60
2018-04-15T15:44:09.449Z,2.53
2018-04-15T15:46:37.037Z,2.30
2018-04-15T15:49:04.541Z,1.37
2018-04-15T15:51:32.768Z,2.03
2018-04-15T15:54:00.310Z,2.93
2018-04-15T15:56:27.775Z,1.57
2018-04-15T15:58:55.263Z,1.60
2018-04-15T16:01:22.735Z,3.20
2018-04-15T16:03:50.358Z,1.67
2018-04-15T16:06:17.844Z,3.73
2018-04-15T16:08:45.571Z,3.57
2018-04-15T16:11:13.233Z,213.57
2018-04-15T16:13:41.039Z,1189.00
2018-04-15T19:31:24.570Z,12.70
2018-04-15T19:33:52.165Z,14.83
2018-04-15T19:36:20.031Z,12.87
2018-04-15T19:38:47.981Z,12.47
2018-04-15T19:41:15.535Z,13.73
2018-04-15T19:43:43.036Z,12.23
2018-04-15T19:46:10.676Z,13.80
2018-04-15T19:48:38.226Z,12.43
2018-04-15T19:51:07.213Z,11.80
2018-04-15T19:53:34.698Z,12.23
2018-04-15T19:56:02.207Z,11.37
2018-04-15T19:58:29.748Z,35.07
2018-04-15T20:00:57.240Z,73.67
2018-04-15T20:03:24.751Z,22.70
2018-04-15T20:05:53.032Z,17.00
2018-04-15T20:08:20.691Z,11.63
2018-04-15T20:10:53.042Z,13.47
2018-04-15T20:13:20.609Z,11.00
2018-04-15T20:15:48.113Z,11.30
2018-04-15T20:18:16.190Z,13.40
2018-04-15T20:20:44.747Z,11.60
2018-04-15T20:23:12.358Z,13.43
2018-04-15T20:25:40.633Z,10.73
2018-04-15T20:28:08.175Z,10.67
2018-04-15T20:30:36.287Z,13.57
2018-04-15T20:33:04.002Z,11.53
2018-04-15T20:35:31.659Z,12.40
2018-04-15T20:37:59.287Z,15.23
2018-04-15T20:40:27.270Z,11.70
2018-04-15T20:42:54.949Z,10.97
2018-04-15T20:45:22.528Z,11.27
2018-04-15T20:47:50.316Z,13.63
2018-04-15T20:50:17.866Z,12.33
2018-04-15T20:52:45.372Z,12.60
2018-04-15T20:55:12.975Z,11.37
2018-04-15T20:57:41.309Z,16.47
2018-04-15T21:00:09.108Z,12.97
2018-04-15T21:02:36.690Z,14.57
2018-04-15T21:05:04.431Z,14.90
2018-04-15T21:07:32.105Z,13.83
2018-04-15T21:10:00.503Z,15.07
2018-04-15T21:12:28.285Z,15.93
2018-04-15T21:14:56.230Z,19.37
2018-04-15T21:17:23.894Z,12.80
2018-04-15T21:19:51.709Z,12.97
2018-04-15T21:22:19.248Z,15.13
2018-04-15T21:24:46.850Z,15.80
2018-04-15T21:27:14.659Z,16.17
2018-04-15T21:29:42.439Z,14.53
2018-04-15T21:32:10.361Z,14.73
2018-04-15T21:34:38.755Z,14.07
2018-04-15T21:37:07.917Z,20.83
2018-04-15T21:39:35.490Z,18.97
2018-04-15T21:42:03.114Z,14.93
2018-04-15T21:44:31.453Z,15.47
2018-04-15T21:46:58.958Z,15.77
2018-04-15T21:49:27.361Z,14.10
2018-04-15T21:51:55.278Z,14.63
2018-04-15T21:54:22.886Z,14.33
2018-04-15T21:56:51.204Z,14.87
2018-04-15T21:59:18.726Z,17.27
2018-04-15T22:01:46.587Z,13.27
2018-04-15T22:04:14.918Z,15.30
2018-04-15T22:06:42.431Z,14.03
2018-04-15T22:09:10.872Z,14.37
2018-04-15T22:11:50.633Z,13.63
2018-04-15T22:14:18.998Z,14.10
2018-04-15T22:16:46.994Z,13.97
2018-04-15T22:19:15.465Z,13.33
2018-04-15T22:21:43.316Z,16.50
2018-04-15T22:24:10.795Z,20.03
2018-04-15T22:26:39.100Z,15.93
2018-04-15T22:29:07.295Z,16.63
2018-04-15T22:31:34.794Z,18.77
2018-04-15T22:34:03.049Z,18.37
2018-04-15T22:36:30.597Z,15.13
2018-04-15T22:38:58.169Z,16.70
2018-04-15T22:41:25.708Z,18.00
2018-04-15T22:43:53.253Z,19.97
2018-04-15T22:46:20.850Z,16.07
2018-04-15T22:48:48.362Z,15.77
2018-04-15T22:51:15.850Z,16.67
2018-04-15T22:53:44.792Z,15.40
2018-04-15T22:56:13.059Z,19.37
2018-04-15T22:58:47.186Z,18.10
2018-04-15T23:01:14.710Z,19.57
2018-04-15T23:03:42.793Z,20.60
2018-04-15T23:06:10.389Z,19.87
2018-04-15T23:08:37.907Z,21.30
2018-04-15T23:11:05.398Z,22.23
2018-04-15T23:13:33.722Z,23.10
2018-04-15T23:16:01.223Z,23.47
2018-04-15T23:18:29.560Z,19.50
2018-04-15T23:20:57.062Z,23.57
2018-04-15T23:23:25.358Z,23.07
2018-04-15T23:25:53.624Z,18.17
2018-04-15T23:28:21.179Z,21.07
2018-04-15T23:30:49.516Z,20.10
2018-04-15T23:33:17.008Z,22.03
2018-04-15T23:35:44.514Z,19.53
2018-04-15T23:38:12.027Z,19.43
2018-04-15T23:40:39.684Z,20.17
2018-04-15T23:43:07.257Z,21.10
2018-04-15T23:45:34.828Z,20.77
2018-04-15T23:48:02.336Z,17.07
2018-04-15T23:50:29.847Z,19.33
2018-04-15T23:52:57.348Z,18.70
2018-04-15T23:55:24.962Z,23.37
2018-04-15T23:57:52.603Z,17.40
